sensor_id;sensor_type;location;lat;lon;timestamp;P1;durP1;ratioP1;P2;durP2;ratioP2
16870;SDS011;8552;48.120;-1.456;2022-07-19T00:00:19;11.13;;;6.03;;
16870;SDS011;8552;48.120;-1.456;2022-07-19T00:02:45;9.25;;;6.55;;
16870;SDS011;8552;48.120;-1.456;2022-07-19T00:05:12;8.43;;;6.15;;
16870;SDS011;8552;48.120;-1.456;2022-07-19T00:07:38;12.27;;;6.50;;
16870;SDS011;8552;48.120;-1.456;2022-07-19T00:10:06;10.55;;;5.95;;
16870;SDS011;8552;48.120;-1.456;2022-07-19T00:12:33;13.25;;;6.60;;
16870;SDS011;8552;48.120;-1.456;2022-07-19T00:15:00;7.65;;;6.15;;
16870;SDS011;8552;48.120;-1.456;2022-07-19T00:17:25;9.93;;;6.18;;
16870;SDS011;8552;48.120;-1.456;2022-07-19T00:19:51;11.65;;;6.95;;
16870;SDS011;8552;48.120;-1.456;2022-07-19T00:22:17;9.15;;;6.53;;
16870;SDS011;8552;48.120;-1.456;2022-07-19T00:24:43;9.70;;;6.32;;
16870;SDS011;8552;48.120;-1.456;2022-07-19T00:27:08;14.57;;;6.65;;
16870;SDS011;8552;48.120;-1.456;2022-07-19T00:29:34;11.00;;;6.13;;
16870;SDS011;8552;48.120;-1.456;2022-07-19T00:32:00;11.10;;;6.15;;
16870;SDS011;8552;48.120;-1.456;2022-07-19T00:34:25;12.73;;;6.60;;
16870;SDS011;8552;48.120;-1.456;2022-07-19T00:36:51;10.50;;;7.20;;
16870;SDS011;8552;48.120;-1.456;2022-07-19T00:39:17;17.23;;;6.95;;
16870;SDS011;8552;48.120;-1.456;2022-07-19T00:41:43;11.13;;;6.78;;
16870;SDS011;8552;48.120;-1.456;2022-07-19T00:44:09;15.88;;;8.20;;
16870;SDS011;8552;48.120;-1.456;2022-07-19T00:46:36;8.15;;;6.80;;
16870;SDS011;8552;48.120;-1.456;2022-07-19T00:49:02;11.57;;;6.35;;
16870;SDS011;8552;48.120;-1.456;2022-07-19T00:51:29;9.13;;;6.63;;
16870;SDS011;8552;48.120;-1.456;2022-07-19T00:53:58;10.38;;;6.40;;
16870;SDS011;8552;48.120;-1.456;2022-07-19T00:56:25;14.43;;;6.82;;
16870;SDS011;8552;48.120;-1.456;2022-07-19T00:58:52;7.75;;;6.35;;
16870;SDS011;8552;48.120;-1.456;2022-07-19T01:01:19;10.43;;;6.38;;
16870;SDS011;8552;48.120;-1.456;2022-07-19T01:03:45;10.13;;;6.80;;
16870;SDS011;8552;48.120;-1.456;2022-07-19T01:06:12;10.90;;;6.38;;
16870;SDS011;8552;48.120;-1.456;2022-07-19T01:08:37;11.98;;;6.70;;
16870;SDS011;8552;48.120;-1.456;2022-07-19T01:11:04;9.80;;;6.03;;
16870;SDS011;8552;48.120;-1.456;2022-07-19T01:13:30;10.65;;;6.60;;
16870;SDS011;8552;48.120;-1.456;2022-07-19T01:15:57;14.70;;;6.57;;
16870;SDS011;8552;48.120;-1.456;2022-07-19T01:18:23;10.30;;;6.22;;
16870;SDS011;8552;48.120;-1.456;2022-07-19T01:20:49;10.35;;;5.75;;
16870;SDS011;8552;48.120;-1.456;2022-07-19T01:23:16;8.30;;;6.65;;
16870;SDS011;8552;48.120;-1.456;2022-07-19T01:25:41;9.00;;;6.50;;
16870;SDS011;8552;48.120;-1.456;2022-07-19T01:28:07;9.77;;;6.28;;
16870;SDS011;8552;48.120;-1.456;2022-07-19T01:30:34;10.43;;;6.05;;
16870;SDS011;8552;48.120;-1.456;2022-07-19T01:33:00;7.93;;;5.82;;
16870;SDS011;8552;48.120;-1.456;2022-07-19T01:35:26;14.30;;;7.00;;
16870;SDS011;8552;48.120;-1.456;2022-07-19T01:37:52;12.30;;;6.47;;
16870;SDS011;8552;48.120;-1.456;2022-07-19T01:40:18;10.35;;;6.45;;
16870;SDS011;8552;48.120;-1.456;2022-07-19T01:42:45;8.98;;;5.63;;
16870;SDS011;8552;48.120;-1.456;2022-07-19T01:45:12;9.27;;;6.07;;
16870;SDS011;8552;48.120;-1.456;2022-07-19T01:47:38;8.48;;;5.78;;
16870;SDS011;8552;48.120;-1.456;2022-07-19T01:50:06;9.55;;;5.72;;
16870;SDS011;8552;48.120;-1.456;2022-07-19T01:52:33;9.75;;;6.40;;
16870;SDS011;8552;48.120;-1.456;2022-07-19T01:54:58;8.90;;;6.07;;
16870;SDS011;8552;48.120;-1.456;2022-07-19T01:57:24;7.97;;;5.60;;
16870;SDS011;8552;48.120;-1.456;2022-07-19T01:59:50;7.95;;;5.50;;
16870;SDS011;8552;48.120;-1.456;2022-07-19T02:02:16;8.65;;;5.78;;
16870;SDS011;8552;48.120;-1.456;2022-07-19T02:04:41;12.10;;;5.55;;
16870;SDS011;8552;48.120;-1.456;2022-07-19T02:07:07;9.77;;;5.07;;
16870;SDS011;8552;48.120;-1.456;2022-07-19T02:09:33;10.35;;;6.13;;
16870;SDS011;8552;48.120;-1.456;2022-07-19T02:11:58;7.00;;;5.50;;
16870;SDS011;8552;48.120;-1.456;2022-07-19T02:14:24;7.75;;;5.40;;
16870;SDS011;8552;48.120;-1.456;2022-07-19T02:16:50;9.40;;;5.65;;
16870;SDS011;8552;48.120;-1.456;2022-07-19T02:19:15;7.85;;;5.93;;
16870;SDS011;8552;48.120;-1.456;2022-07-19T02:21:41;9.32;;;5.68;;
16870;SDS011;8552;48.120;-1.456;2022-07-19T02:24:07;11.60;;;6.00;;
16870;SDS011;8552;48.120;-1.456;2022-07-19T02:26:34;8.73;;;5.55;;
16870;SDS011;8552;48.120;-1.456;2022-07-19T02:29:00;9.35;;;4.95;;
16870;SDS011;8552;48.120;-1.456;2022-07-19T02:31:27;10.73;;;5.20;;
16870;SDS011;8552;48.120;-1.456;2022-07-19T02:33:53;10.02;;;5.40;;
16870;SDS011;8552;48.120;-1.456;2022-07-19T02:36:18;10.85;;;4.95;;
16870;SDS011;8552;48.120;-1.456;2022-07-19T02:38:44;9.80;;;5.32;;
16870;SDS011;8552;48.120;-1.456;2022-07-19T02:41:11;10.50;;;5.13;;
16870;SDS011;8552;48.120;-1.456;2022-07-19T02:43:38;8.30;;;5.45;;
16870;SDS011;8552;48.120;-1.456;2022-07-19T02:46:04;8.52;;;5.45;;
16870;SDS011;8552;48.120;-1.456;2022-07-19T02:48:30;9.18;;;5.28;;
16870;SDS011;8552;48.120;-1.456;2022-07-19T02:50:56;9.73;;;5.05;;
16870;SDS011;8552;48.120;-1.456;2022-07-19T02:53:22;9.32;;;5.30;;
16870;SDS011;8552;48.120;-1.456;2022-07-19T02:55:48;12.40;;;5.40;;
16870;SDS011;8552;48.120;-1.456;2022-07-19T02:58:14;10.57;;;5.45;;
16870;SDS011;8552;48.120;-1.456;2022-07-19T03:00:39;8.35;;;5.45;;
16870;SDS011;8552;48.120;-1.456;2022-07-19T03:03:05;7.15;;;5.18;;
16870;SDS011;8552;48.120;-1.456;2022-07-19T03:05:49;10.82;;;5.38;;
16870;SDS011;8552;48.120;-1.456;2022-07-19T03:08:15;7.57;;;5.07;;
16870;SDS011;8552;48.120;-1.456;2022-07-19T03:10:42;6.35;;;4.45;;
16870;SDS011;8552;48.120;-1.456;2022-07-19T03:13:08;10.85;;;5.03;;
16870;SDS011;8552;48.120;-1.456;2022-07-19T03:15:34;11.85;;;5.13;;
16870;SDS011;8552;48.120;-1.456;2022-07-19T03:18:01;7.75;;;5.55;;
16870;SDS011;8552;48.120;-1.456;2022-07-19T03:20:27;8.85;;;5.53;;
16870;SDS011;8552;48.120;-1.456;2022-07-19T03:22:52;12.85;;;4.97;;
16870;SDS011;8552;48.120;-1.456;2022-07-19T03:25:18;8.80;;;5.70;;
16870;SDS011;8552;48.120;-1.456;2022-07-19T03:27:44;7.45;;;5.15;;
16870;SDS011;8552;48.120;-1.456;2022-07-19T03:30:09;7.68;;;4.90;;
16870;SDS011;8552;48.120;-1.456;2022-07-19T03:32:35;9.90;;;5.55;;
16870;SDS011;8552;48.120;-1.456;2022-07-19T03:35:01;8.02;;;5.20;;
16870;SDS011;8552;48.120;-1.456;2022-07-19T03:37:27;6.07;;;4.35;;
16870;SDS011;8552;48.120;-1.456;2022-07-19T03:39:53;10.60;;;4.85;;
16870;SDS011;8552;48.120;-1.456;2022-07-19T03:42:18;7.57;;;4.70;;
16870;SDS011;8552;48.120;-1.456;2022-07-19T03:44:44;6.95;;;4.93;;
16870;SDS011;8552;48.120;-1.456;2022-07-19T03:47:10;13.48;;;5.57;;
16870;SDS011;8552;48.120;-1.456;2022-07-19T03:49:35;7.57;;;4.85;;
16870;SDS011;8552;48.120;-1.456;2022-07-19T03:52:01;11.70;;;5.13;;
16870;SDS011;8552;48.120;-1.456;2022-07-19T03:54:27;6.03;;;4.38;;
16870;SDS011;8552;48.120;-1.456;2022-07-19T03:56:52;9.05;;;5.20;;
16870;SDS011;8552;48.120;-1.456;2022-07-19T03:59:20;6.72;;;4.90;;
16870;SDS011;8552;48.120;-1.456;2022-07-19T04:01:47;8.15;;;4.95;;
16870;SDS011;8552;48.120;-1.456;2022-07-19T04:04:16;14.02;;;5.15;;
16870;SDS011;8552;48.120;-1.456;2022-07-19T04:06:42;6.20;;;4.80;;
16870;SDS011;8552;48.120;-1.456;2022-07-19T04:09:08;7.30;;;5.35;;
16870;SDS011;8552;48.120;-1.456;2022-07-19T04:11:34;8.88;;;4.88;;
16870;SDS011;8552;48.120;-1.456;2022-07-19T04:14:00;6.65;;;5.32;;
16870;SDS011;8552;48.120;-1.456;2022-07-19T04:16:25;8.27;;;5.07;;
16870;SDS011;8552;48.120;-1.456;2022-07-19T04:18:51;11.30;;;5.22;;
16870;SDS011;8552;48.120;-1.456;2022-07-19T04:21:17;8.63;;;5.20;;
16870;SDS011;8552;48.120;-1.456;2022-07-19T04:23:42;10.65;;;4.80;;
16870;SDS011;8552;48.120;-1.456;2022-07-19T04:26:08;7.07;;;4.72;;
16870;SDS011;8552;48.120;-1.456;2022-07-19T04:28:34;11.35;;;5.05;;
16870;SDS011;8552;48.120;-1.456;2022-07-19T04:30:59;11.10;;;5.10;;
16870;SDS011;8552;48.120;-1.456;2022-07-19T04:33:25;9.60;;;4.90;;
16870;SDS011;8552;48.120;-1.456;2022-07-19T04:35:51;9.07;;;4.90;;
16870;SDS011;8552;48.120;-1.456;2022-07-19T04:38:18;8.90;;;5.43;;
16870;SDS011;8552;48.120;-1.456;2022-07-19T04:40:45;8.70;;;4.90;;
16870;SDS011;8552;48.120;-1.456;2022-07-19T04:43:10;7.88;;;4.65;;
16870;SDS011;8552;48.120;-1.456;2022-07-19T04:45:36;8.63;;;5.00;;
16870;SDS011;8552;48.120;-1.456;2022-07-19T04:48:01;12.88;;;5.25;;
16870;SDS011;8552;48.120;-1.456;2022-07-19T04:50:27;7.65;;;4.80;;
16870;SDS011;8552;48.120;-1.456;2022-07-19T04:52:53;10.07;;;5.18;;
16870;SDS011;8552;48.120;-1.456;2022-07-19T04:55:19;13.27;;;5.07;;
16870;SDS011;8552;48.120;-1.456;2022-07-19T04:57:44;7.28;;;4.78;;
16870;SDS011;8552;48.120;-1.456;2022-07-19T05:00:10;10.75;;;5.15;;
16870;SDS011;8552;48.120;-1.456;2022-07-19T05:02:37;8.48;;;4.65;;
16870;SDS011;8552;48.120;-1.456;2022-07-19T05:05:03;13.10;;;4.90;;
16870;SDS011;8552;48.120;-1.456;2022-07-19T05:07:30;8.20;;;4.82;;
16870;SDS011;8552;48.120;-1.456;2022-07-19T05:09:56;8.38;;;4.55;;
16870;SDS011;8552;48.120;-1.456;2022-07-19T05:12:21;7.30;;;4.85;;
16870;SDS011;8552;48.120;-1.456;2022-07-19T05:14:47;8.73;;;4.47;;
16870;SDS011;8552;48.120;-1.456;2022-07-19T05:17:13;7.45;;;4.72;;
16870;SDS011;8552;48.120;-1.456;2022-07-19T05:19:39;10.02;;;4.95;;
16870;SDS011;8552;48.120;-1.456;2022-07-19T05:22:05;10.73;;;5.00;;
16870;SDS011;8552;48.120;-1.456;2022-07-19T05:24:31;7.05;;;4.53;;
16870;SDS011;8552;48.120;-1.456;2022-07-19T05:26:57;7.95;;;5.05;;
16870;SDS011;8552;48.120;-1.456;2022-07-19T05:29:22;6.75;;;4.65;;
16870;SDS011;8552;48.120;-1.456;2022-07-19T05:31:48;7.95;;;4.60;;
16870;SDS011;8552;48.120;-1.456;2022-07-19T05:34:14;9.38;;;4.68;;
16870;SDS011;8552;48.120;-1.456;2022-07-19T05:36:40;7.18;;;5.00;;
16870;SDS011;8552;48.120;-1.456;2022-07-19T05:39:05;7.75;;;4.90;;
16870;SDS011;8552;48.120;-1.456;2022-07-19T05:41:31;8.30;;;4.70;;
16870;SDS011;8552;48.120;-1.456;2022-07-19T05:43:57;6.93;;;4.88;;
16870;SDS011;8552;48.120;-1.456;2022-07-19T05:46:23;7.35;;;5.25;;
16870;SDS011;8552;48.120;-1.456;2022-07-19T05:48:49;8.27;;;4.57;;
16870;SDS011;8552;48.120;-1.456;2022-07-19T05:51:15;10.57;;;5.20;;
16870;SDS011;8552;48.120;-1.456;2022-07-19T05:53:41;6.10;;;4.28;;
16870;SDS011;8552;48.120;-1.456;2022-07-19T05:56:06;8.55;;;5.35;;
16870;SDS011;8552;48.120;-1.456;2022-07-19T05:58:33;8.70;;;5.30;;
16870;SDS011;8552;48.120;-1.456;2022-07-19T06:00:59;8.15;;;4.53;;
16870;SDS011;8552;48.120;-1.456;2022-07-19T06:03:43;9.50;;;4.60;;
16870;SDS011;8552;48.120;-1.456;2022-07-19T06:06:10;5.40;;;4.63;;
16870;SDS011;8552;48.120;-1.456;2022-07-19T06:08:35;6.63;;;5.05;;
16870;SDS011;8552;48.120;-1.456;2022-07-19T06:11:01;11.95;;;5.30;;
16870;SDS011;8552;48.120;-1.456;2022-07-19T06:13:27;7.22;;;4.72;;
16870;SDS011;8552;48.120;-1.456;2022-07-19T06:15:52;6.25;;;5.05;;
16870;SDS011;8552;48.120;-1.456;2022-07-19T06:18:18;8.88;;;4.82;;
16870;SDS011;8552;48.120;-1.456;2022-07-19T06:20:44;7.85;;;4.68;;
16870;SDS011;8552;48.120;-1.456;2022-07-19T06:23:10;7.95;;;4.82;;
16870;SDS011;8552;48.120;-1.456;2022-07-19T06:25:35;9.98;;;4.95;;
16870;SDS011;8552;48.120;-1.456;2022-07-19T06:28:02;8.60;;;4.82;;
16870;SDS011;8552;48.120;-1.456;2022-07-19T06:30:28;6.35;;;4.90;;
16870;SDS011;8552;48.120;-1.456;2022-07-19T06:32:53;9.85;;;5.03;;
16870;SDS011;8552;48.120;-1.456;2022-07-19T06:35:19;6.72;;;4.93;;
16870;SDS011;8552;48.120;-1.456;2022-07-19T06:37:45;11.77;;;5.25;;
16870;SDS011;8552;48.120;-1.456;2022-07-19T06:40:11;7.78;;;5.18;;
16870;SDS011;8552;48.120;-1.456;2022-07-19T06:42:36;7.60;;;5.43;;
16870;SDS011;8552;48.120;-1.456;2022-07-19T06:45:03;7.13;;;4.75;;
16870;SDS011;8552;48.120;-1.456;2022-07-19T06:47:29;6.97;;;4.75;;
16870;SDS011;8552;48.120;-1.456;2022-07-19T06:49:57;10.95;;;5.13;;
16870;SDS011;8552;48.120;-1.456;2022-07-19T06:52:23;9.25;;;5.40;;
16870;SDS011;8552;48.120;-1.456;2022-07-19T06:54:49;7.35;;;5.20;;
16870;SDS011;8552;48.120;-1.456;2022-07-19T06:57:14;9.75;;;5.30;;
16870;SDS011;8552;48.120;-1.456;2022-07-19T06:59:40;10.20;;;6.35;;
16870;SDS011;8552;48.120;-1.456;2022-07-19T07:02:06;10.38;;;5.50;;
16870;SDS011;8552;48.120;-1.456;2022-07-19T07:04:32;9.85;;;5.97;;
16870;SDS011;8552;48.120;-1.456;2022-07-19T07:06:57;11.23;;;6.45;;
16870;SDS011;8552;48.120;-1.456;2022-07-19T07:09:23;13.68;;;6.50;;
16870;SDS011;8552;48.120;-1.456;2022-07-19T07:11:49;12.10;;;8.00;;
16870;SDS011;8552;48.120;-1.456;2022-07-19T07:14:14;13.25;;;9.23;;
16870;SDS011;8552;48.120;-1.456;2022-07-19T07:16:40;11.45;;;9.20;;
16870;SDS011;8552;48.120;-1.456;2022-07-19T07:19:06;11.48;;;8.95;;
16870;SDS011;8552;48.120;-1.456;2022-07-19T07:21:31;10.30;;;8.95;;
16870;SDS011;8552;48.120;-1.456;2022-07-19T07:24:00;14.32;;;11.52;;
16870;SDS011;8552;48.120;-1.456;2022-07-19T07:26:27;18.25;;;12.25;;
16870;SDS011;8552;48.120;-1.456;2022-07-19T07:28:52;18.65;;;10.45;;
16870;SDS011;8552;48.120;-1.456;2022-07-19T07:31:18;15.52;;;12.48;;
16870;SDS011;8552;48.120;-1.456;2022-07-19T07:33:44;13.07;;;10.90;;
16870;SDS011;8552;48.120;-1.456;2022-07-19T07:36:10;15.13;;;12.00;;
16870;SDS011;8552;48.120;-1.456;2022-07-19T07:38:36;18.52;;;12.00;;
16870;SDS011;8552;48.120;-1.456;2022-07-19T07:41:02;16.63;;;14.77;;
16870;SDS011;8552;48.120;-1.456;2022-07-19T07:43:28;17.02;;;14.20;;
16870;SDS011;8552;48.120;-1.456;2022-07-19T07:45:54;17.33;;;14.32;;
16870;SDS011;8552;48.120;-1.456;2022-07-19T07:48:20;17.20;;;14.73;;
16870;SDS011;8552;48.120;-1.456;2022-07-19T07:50:45;19.42;;;14.60;;
16870;SDS011;8552;48.120;-1.456;2022-07-19T07:53:11;16.25;;;13.63;;
16870;SDS011;8552;48.120;-1.456;2022-07-19T07:55:37;17.08;;;14.50;;
16870;SDS011;8552;48.120;-1.456;2022-07-19T07:58:05;19.98;;;14.32;;
16870;SDS011;8552;48.120;-1.456;2022-07-19T08:00:32;17.83;;;15.85;;
16870;SDS011;8552;48.120;-1.456;2022-07-19T08:02:58;18.08;;;14.93;;
16870;SDS011;8552;48.120;-1.456;2022-07-19T08:05:24;20.35;;;15.20;;
16870;SDS011;8552;48.120;-1.456;2022-07-19T08:07:50;17.27;;;15.18;;
16870;SDS011;8552;48.120;-1.456;2022-07-19T08:10:15;23.73;;;20.20;;
16870;SDS011;8552;48.120;-1.456;2022-07-19T08:12:41;26.58;;;23.88;;
16870;SDS011;8552;48.120;-1.456;2022-07-19T08:15:07;30.83;;;25.35;;
16870;SDS011;8552;48.120;-1.456;2022-07-19T08:17:33;28.58;;;24.30;;
16870;SDS011;8552;48.120;-1.456;2022-07-19T08:19:59;27.45;;;24.65;;
16870;SDS011;8552;48.120;-1.456;2022-07-19T08:22:25;34.35;;;26.33;;
16870;SDS011;8552;48.120;-1.456;2022-07-19T08:24:51;28.30;;;23.88;;
16870;SDS011;8552;48.120;-1.456;2022-07-19T08:27:17;27.77;;;24.70;;
16870;SDS011;8552;48.120;-1.456;2022-07-19T08:29:43;30.27;;;26.92;;
16870;SDS011;8552;48.120;-1.456;2022-07-19T08:32:09;31.50;;;28.48;;
16870;SDS011;8552;48.120;-1.456;2022-07-19T08:34:35;33.70;;;29.98;;
16870;SDS011;8552;48.120;-1.456;2022-07-19T08:37:00;31.88;;;28.73;;
16870;SDS011;8552;48.120;-1.456;2022-07-19T08:39:26;32.58;;;29.17;;
16870;SDS011;8552;48.120;-1.456;2022-07-19T08:41:52;32.33;;;28.65;;
16870;SDS011;8552;48.120;-1.456;2022-07-19T08:44:17;33.28;;;29.70;;
16870;SDS011;8552;48.120;-1.456;2022-07-19T08:46:44;31.50;;;28.58;;
16870;SDS011;8552;48.120;-1.456;2022-07-19T08:49:10;34.65;;;31.10;;
16870;SDS011;8552;48.120;-1.456;2022-07-19T08:51:35;37.42;;;33.65;;
16870;SDS011;8552;48.120;-1.456;2022-07-19T08:54:01;35.55;;;32.00;;
16870;SDS011;8552;48.120;-1.456;2022-07-19T08:56:27;38.72;;;34.63;;
16870;SDS011;8552;48.120;-1.456;2022-07-19T08:59:12;38.88;;;34.15;;
16870;SDS011;8552;48.120;-1.456;2022-07-19T09:01:38;39.95;;;35.85;;
16870;SDS011;8552;48.120;-1.456;2022-07-19T09:04:08;40.63;;;36.53;;
16870;SDS011;8552;48.120;-1.456;2022-07-19T09:06:40;38.75;;;34.33;;
16870;SDS011;8552;48.120;-1.456;2022-07-19T09:09:08;37.67;;;33.72;;
16870;SDS011;8552;48.120;-1.456;2022-07-19T09:11:36;40.30;;;36.35;;
16870;SDS011;8552;48.120;-1.456;2022-07-19T09:14:04;39.30;;;35.17;;
16870;SDS011;8552;48.120;-1.456;2022-07-19T09:19:19;34.15;;;30.98;;
16870;SDS011;8552;48.120;-1.456;2022-07-19T09:24:19;32.03;;;28.65;;
16870;SDS011;8552;48.120;-1.456;2022-07-19T09:29:26;32.65;;;27.60;;
16870;SDS011;8552;48.120;-1.456;2022-07-19T09:32:00;29.45;;;26.60;;
16870;SDS011;8552;48.120;-1.456;2022-07-19T09:34:35;27.50;;;24.63;;
16870;SDS011;8552;48.120;-1.456;2022-07-19T09:37:09;25.45;;;22.70;;
16870;SDS011;8552;48.120;-1.456;2022-07-19T09:39:41;23.83;;;20.85;;
16870;SDS011;8552;48.120;-1.456;2022-07-19T09:42:14;22.75;;;19.77;;
16870;SDS011;8552;48.120;-1.456;2022-07-19T09:44:58;22.50;;;20.20;;
16870;SDS011;8552;48.120;-1.456;2022-07-19T09:47:38;22.92;;;20.63;;
16870;SDS011;8552;48.120;-1.456;2022-07-19T09:50:09;24.25;;;20.63;;
16870;SDS011;8552;48.120;-1.456;2022-07-19T09:52:44;23.23;;;19.23;;
16870;SDS011;8552;48.120;-1.456;2022-07-19T09:55:16;20.80;;;18.80;;
16870;SDS011;8552;48.120;-1.456;2022-07-19T09:57:50;21.08;;;18.90;;
16870;SDS011;8552;48.120;-1.456;2022-07-19T10:00:28;19.85;;;17.98;;
16870;SDS011;8552;48.120;-1.456;2022-07-19T10:02:59;20.60;;;18.40;;
16870;SDS011;8552;48.120;-1.456;2022-07-19T10:05:28;20.00;;;18.10;;
16870;SDS011;8552;48.120;-1.456;2022-07-19T10:08:01;19.20;;;17.20;;
16870;SDS011;8552;48.120;-1.456;2022-07-19T10:10:30;20.08;;;18.17;;
16870;SDS011;8552;48.120;-1.456;2022-07-19T10:12:59;19.98;;;17.95;;
16870;SDS011;8552;48.120;-1.456;2022-07-19T10:15:36;18.88;;;17.02;;
16870;SDS011;8552;48.120;-1.456;2022-07-19T10:18:09;19.25;;;17.42;;
16870;SDS011;8552;48.120;-1.456;2022-07-19T10:20:46;19.23;;;17.20;;
16870;SDS011;8552;48.120;-1.456;2022-07-19T10:23:17;18.75;;;16.95;;
16870;SDS011;8552;48.120;-1.456;2022-07-19T10:25:55;18.33;;;16.55;;
16870;SDS011;8552;48.120;-1.456;2022-07-19T10:28:32;19.50;;;17.15;;
16870;SDS011;8552;48.120;-1.456;2022-07-19T10:32:00;17.70;;;15.63;;
16870;SDS011;8552;48.120;-1.456;2022-07-19T10:34:02;17.45;;;14.13;;
16870;SDS011;8552;48.120;-1.456;2022-07-19T10:39:21;16.63;;;14.23;;
16870;SDS011;8552;48.120;-1.456;2022-07-19T10:45:29;17.75;;;13.50;;
16870;SDS011;8552;48.120;-1.456;2022-07-19T10:50:17;13.73;;;12.10;;
16870;SDS011;8552;48.120;-1.456;2022-07-19T10:52:53;15.43;;;12.20;;
16870;SDS011;8552;48.120;-1.456;2022-07-19T10:55:25;17.50;;;13.13;;
16870;SDS011;8552;48.120;-1.456;2022-07-19T11:00:44;13.95;;;11.93;;
16870;SDS011;8552;48.120;-1.456;2022-07-19T11:05:52;14.45;;;13.00;;
16870;SDS011;8552;48.120;-1.456;2022-07-19T11:08:39;13.60;;;12.25;;
16870;SDS011;8552;48.120;-1.456;2022-07-19T11:11:08;14.63;;;12.27;;
16870;SDS011;8552;48.120;-1.456;2022-07-19T11:13:46;13.48;;;12.18;;
16870;SDS011;8552;48.120;-1.456;2022-07-19T11:16:15;17.48;;;12.60;;
16870;SDS011;8552;48.120;-1.456;2022-07-19T11:18:45;14.65;;;11.82;;
16870;SDS011;8552;48.120;-1.456;2022-07-19T11:21:13;14.43;;;12.40;;
16870;SDS011;8552;48.120;-1.456;2022-07-19T11:23:40;13.68;;;12.35;;
16870;SDS011;8552;48.120;-1.456;2022-07-19T11:26:12;14.15;;;12.52;;
16870;SDS011;8552;48.120;-1.456;2022-07-19T11:28:46;13.68;;;12.30;;
16870;SDS011;8552;48.120;-1.456;2022-07-19T11:33:46;15.13;;;11.40;;
16870;SDS011;8552;48.120;-1.456;2022-07-19T11:36:14;13.55;;;11.57;;
16870;SDS011;8552;48.120;-1.456;2022-07-19T11:38:51;12.13;;;10.77;;
16870;SDS011;8552;48.120;-1.456;2022-07-19T11:43:50;12.30;;;10.50;;
16870;SDS011;8552;48.120;-1.456;2022-07-19T11:46:20;11.40;;;10.13;;
16870;SDS011;8552;48.120;-1.456;2022-07-19T11:48:47;13.32;;;10.32;;
16870;SDS011;8552;48.120;-1.456;2022-07-19T11:51:15;11.38;;;10.18;;
16870;SDS011;8552;48.120;-1.456;2022-07-19T11:53:41;11.45;;;10.25;;
16870;SDS011;8552;48.120;-1.456;2022-07-19T11:56:21;15.18;;;11.18;;
16870;SDS011;8552;48.120;-1.456;2022-07-19T11:58:52;12.68;;;10.38;;
16870;SDS011;8552;48.120;-1.456;2022-07-19T12:01:23;14.25;;;11.25;;
16870;SDS011;8552;48.120;-1.456;2022-07-19T12:03:54;14.27;;;11.13;;
16870;SDS011;8552;48.120;-1.456;2022-07-19T12:06:33;16.42;;;12.40;;
16870;SDS011;8552;48.120;-1.456;2022-07-19T12:09:03;15.38;;;12.27;;
16870;SDS011;8552;48.120;-1.456;2022-07-19T12:11:36;15.25;;;12.00;;
16870;SDS011;8552;48.120;-1.456;2022-07-19T12:14:17;14.82;;;12.23;;
16870;SDS011;8552;48.120;-1.456;2022-07-19T12:19:46;12.55;;;11.25;;
16870;SDS011;8552;48.120;-1.456;2022-07-19T12:22:27;21.00;;;12.88;;
16870;SDS011;8552;48.120;-1.456;2022-07-19T12:25:01;14.68;;;12.02;;
16870;SDS011;8552;48.120;-1.456;2022-07-19T12:27:27;16.80;;;11.57;;
16870;SDS011;8552;48.120;-1.456;2022-07-19T12:29:54;16.30;;;12.75;;
16870;SDS011;8552;48.120;-1.456;2022-07-19T12:35:04;16.88;;;12.52;;
16870;SDS011;8552;48.120;-1.456;2022-07-19T12:37:35;17.92;;;12.52;;
16870;SDS011;8552;48.120;-1.456;2022-07-19T12:45:32;13.40;;;11.80;;
16870;SDS011;8552;48.120;-1.456;2022-07-19T12:47:59;18.10;;;12.48;;
16870;SDS011;8552;48.120;-1.456;2022-07-19T12:50:27;14.55;;;11.93;;
16870;SDS011;8552;48.120;-1.456;2022-07-19T12:52:54;18.88;;;11.95;;
16870;SDS011;8552;48.120;-1.456;2022-07-19T12:55:22;16.38;;;11.98;;
16870;SDS011;8552;48.120;-1.456;2022-07-19T12:57:49;18.92;;;12.30;;
16870;SDS011;8552;48.120;-1.456;2022-07-19T13:00:16;16.25;;;11.50;;
16870;SDS011;8552;48.120;-1.456;2022-07-19T13:02:44;14.80;;;11.32;;
16870;SDS011;8552;48.120;-1.456;2022-07-19T13:05:11;15.70;;;12.77;;
16870;SDS011;8552;48.120;-1.456;2022-07-19T13:07:37;16.95;;;12.77;;
16870;SDS011;8552;48.120;-1.456;2022-07-19T13:10:03;13.18;;;11.50;;
16870;SDS011;8552;48.120;-1.456;2022-07-19T13:12:30;15.00;;;11.60;;
16870;SDS011;8552;48.120;-1.456;2022-07-19T13:14:56;16.77;;;12.43;;
16870;SDS011;8552;48.120;-1.456;2022-07-19T13:17:21;15.13;;;12.32;;
16870;SDS011;8552;48.120;-1.456;2022-07-19T13:19:47;13.77;;;12.35;;
16870;SDS011;8552;48.120;-1.456;2022-07-19T13:22:13;15.23;;;11.40;;
16870;SDS011;8552;48.120;-1.456;2022-07-19T13:24:39;15.82;;;12.18;;
16870;SDS011;8552;48.120;-1.456;2022-07-19T13:27:04;17.48;;;12.55;;
16870;SDS011;8552;48.120;-1.456;2022-07-19T13:29:30;14.68;;;12.32;;
16870;SDS011;8552;48.120;-1.456;2022-07-19T13:31:56;15.50;;;11.60;;
16870;SDS011;8552;48.120;-1.456;2022-07-19T13:34:23;17.77;;;12.05;;
16870;SDS011;8552;48.120;-1.456;2022-07-19T13:36:49;13.90;;;10.85;;
16870;SDS011;8552;48.120;-1.456;2022-07-19T13:39:15;12.85;;;11.55;;
16870;SDS011;8552;48.120;-1.456;2022-07-19T13:41:41;13.85;;;11.00;;
16870;SDS011;8552;48.120;-1.456;2022-07-19T13:44:07;14.60;;;10.55;;
16870;SDS011;8552;48.120;-1.456;2022-07-19T13:46:33;13.15;;;10.10;;
16870;SDS011;8552;48.120;-1.456;2022-07-19T13:48:59;11.57;;;9.70;;
16870;SDS011;8552;48.120;-1.456;2022-07-19T13:51:25;12.43;;;10.05;;
16870;SDS011;8552;48.120;-1.456;2022-07-19T13:53:52;13.60;;;10.68;;
16870;SDS011;8552;48.120;-1.456;2022-07-19T13:56:19;13.10;;;9.80;;
16870;SDS011;8552;48.120;-1.456;2022-07-19T13:58:46;11.45;;;9.95;;
16870;SDS011;8552;48.120;-1.456;2022-07-19T14:01:11;14.00;;;10.27;;
16870;SDS011;8552;48.120;-1.456;2022-07-19T14:03:38;10.15;;;9.02;;
16870;SDS011;8552;48.120;-1.456;2022-07-19T14:06:04;11.38;;;9.25;;
16870;SDS011;8552;48.120;-1.456;2022-07-19T14:08:30;10.25;;;9.32;;
16870;SDS011;8552;48.120;-1.456;2022-07-19T14:10:57;12.57;;;8.98;;
16870;SDS011;8552;48.120;-1.456;2022-07-19T14:13:24;13.07;;;9.10;;
16870;SDS011;8552;48.120;-1.456;2022-07-19T14:15:50;10.02;;;8.02;;
16870;SDS011;8552;48.120;-1.456;2022-07-19T14:18:16;9.73;;;8.60;;
16870;SDS011;8552;48.120;-1.456;2022-07-19T14:20:42;11.18;;;8.45;;
16870;SDS011;8552;48.120;-1.456;2022-07-19T14:23:11;14.88;;;9.10;;
16870;SDS011;8552;48.120;-1.456;2022-07-19T14:25:38;10.85;;;8.82;;
16870;SDS011;8552;48.120;-1.456;2022-07-19T14:28:05;11.38;;;10.15;;
16870;SDS011;8552;48.120;-1.456;2022-07-19T14:30:32;12.98;;;11.00;;
16870;SDS011;8552;48.120;-1.456;2022-07-19T14:32:59;12.80;;;10.10;;
16870;SDS011;8552;48.120;-1.456;2022-07-19T14:35:25;12.05;;;10.85;;
16870;SDS011;8552;48.120;-1.456;2022-07-19T14:37:51;11.55;;;10.32;;
16870;SDS011;8552;48.120;-1.456;2022-07-19T14:40:16;12.30;;;11.00;;
16870;SDS011;8552;48.120;-1.456;2022-07-19T14:42:42;12.23;;;10.73;;
16870;SDS011;8552;48.120;-1.456;2022-07-19T14:45:08;14.55;;;11.35;;
16870;SDS011;8552;48.120;-1.456;2022-07-19T14:47:35;12.00;;;10.90;;
16870;SDS011;8552;48.120;-1.456;2022-07-19T14:50:02;12.93;;;10.80;;
16870;SDS011;8552;48.120;-1.456;2022-07-19T14:52:29;13.10;;;11.70;;
16870;SDS011;8552;48.120;-1.456;2022-07-19T14:54:55;13.77;;;10.48;;
16870;SDS011;8552;48.120;-1.456;2022-07-19T14:57:21;13.95;;;11.02;;
16870;SDS011;8552;48.120;-1.456;2022-07-19T14:59:48;12.05;;;10.85;;
16870;SDS011;8552;48.120;-1.456;2022-07-19T15:02:14;12.73;;;11.43;;
16870;SDS011;8552;48.120;-1.456;2022-07-19T15:04:40;13.20;;;11.77;;
16870;SDS011;8552;48.120;-1.456;2022-07-19T15:07:06;13.43;;;12.10;;
16870;SDS011;8552;48.120;-1.456;2022-07-19T15:09:32;14.77;;;12.13;;
16870;SDS011;8552;48.120;-1.456;2022-07-19T15:11:59;13.23;;;11.00;;